Airfield :
LOGIN :

Register | Disclaimer

   EN    FR    IT 

 










Legend :    VFR   Marginal VFR   IFR   Intensive IFR   Very Intensive IFR
Visi :
Ceiling :
>= 8 km
>= 3000ft
5 to 8 km
1000 to 3000 ft
1500m to 5 km
500 to 1000 ft
800 to 1500m
200 to 500 ft
< 800m
< 200 ft
Symbols :   Thunderstorms  Fog  Heavy snow  Heavy precipitations  Wind > 20 kt
SIGMETs :     Misc.  Thunderstorms  Icing  Turbulence  Mountain Waves  Volcanic Ashes







- Airport Elevation : 1017 ft
- Download approach charts


LFSL - Brive Souillac

CURRENT METAR :
  • 160700Z AUTO 31002KT 9000 NSC 05/05 Q1022 NOSIG

EXPIRED METARs :
  • 160630Z AUTO 00000KT 9000 NSC 04/04 Q1021 NOSIG
  • 160600Z AUTO 00000KT CAVOK 05/05 Q1021 NOSIG
  • 160530Z AUTO 00000KT 9000 NSC 05/04 Q1021 NOSIG
  • 160500Z AUTO 00000KT 9000 NSC 05/05 Q1021 NOSIG
  • 160430Z AUTO 00000KT 9000 FEW001 05/05 Q1021 NOSIG

TAF TAF LFSL
Valid from the 16 at 06:00 until the 16 at 15:00 UTC


160500Z 1606/1615 VRB02KT 8000 NSC
BECMG 1606/1608 CAVOK
No reported NOTAMs for that airfield.



MET'MAP, your aeronautical weather chart ! - Copyright ORBIFLY December 2007 - Disclaimer

ORBIFLY MET'MAP TEAM :

Programming & Development : Alexandra Zaïnal
Concept & Development : Baudouin d'Aumeries
Co-Development & Prog : Marc-Olivier Méhu
Technical & hardware support : Manuel Goepfert

Contact : metmap@orbifly.com




SOURCES & CREDITS :

   NOAA